This is the latest recevied weather packets stored in our database for station/object EA3AGY-13. If no packets are shown the sender has not sent any weather packets the latest 10 day(s).
| Time | Temp. | Humidity | Pressure | Rain* | Wind** | Luminosity | Snow |
|---|---|---|---|---|---|---|---|
| 1777187401 | 12.78° C | 41% | 1018.5 hPa | 0 mm | - | - | - |
| 1777186800 | 12.22° C | 41% | 1018.4 hPa | 0 mm | - | - | - |
| 1777184992 | 11.11° C | 44% | 1018.3 hPa | 0 mm | - | - | - |
| 1777184390 | 11.11° C | 45% | 1018.4 hPa | 0 mm | - | - | - |
| 1777177161 | 8.33° C | 49% | 1017.5 hPa | 0 mm | - | - | - |
| 1777172944 | 8.33° C | 49% | 1017.6 hPa | 0 mm | - | - | - |
| 1777172342 | 7.78° C | 51% | 1017.6 hPa | 0 mm | - | - | - |
| 1777171740 | 7.78° C | 51% | 1017.7 hPa | 0 mm | - | - | - |
| 1777170535 | 7.78° C | 53% | 1017.7 hPa | 0 mm | - | - | - |
| 1777167523 | 7.78° C | 49% | 1017.6 hPa | 0 mm | - | - | - |
| 1777165716 | 8.33° C | 49% | 1017.6 hPa | 0 mm | - | - | - |
| 1777161499 | 8.33° C | 48% | 1018 hPa | 0 mm | - | - | - |
| 1777160897 | 8.33° C | 49% | 1018 hPa | 0 mm | - | - | - |
| 1777159090 | 8.33° C | 52% | 1018.1 hPa | 0 mm | - | - | - |
| 1777158488 | 8.33° C | 55% | 1018.2 hPa | 0 mm | - | - | - |
| 1777157885 | 8.33° C | 51% | 1018.2 hPa | 0 mm | - | - | - |
| 1777157283 | 8.33° C | 47% | 1018.2 hPa | 0 mm | - | - | - |
| 1777156681 | 8.89° C | 47% | 1018.3 hPa | 0 mm | - | - | - |
| 1777155476 | 8.33° C | 48% | 1018.5 hPa | 0 mm | - | - | - |
| 1777152464 | 9.44° C | 46% | 1018.4 hPa | 0 mm | - | - | - |
| 1777150657 | 9.44° C | 47% | 1018.3 hPa | 0 mm | - | - | - |
| 1777149452 | 9.44° C | 43% | 1018.3 hPa | 0 mm | - | - | - |
* Rain since midnight (hover to see other rain measurements)
** Current wind speed in m/s (hover to see current wind gust speed)